Date,TemperatureHighF,TemperatureAvgF,TemperatureLowF,DewpointHighF,DewpointAvgF,DewpointLowF,HumidityHigh,HumidityAvg,HumidityLow,PressureMaxIn,PressureMinIn,WindSpeedMaxMPH,WindSpeedAvgMPH,GustSpeedMaxMPH,PrecipitationSumIn
2013-2-1,75.0,70.3,66.0,65.0,61.4,58.0,90,74,59,30.41,30.32,30,17,48,0.01
2013-2-2,75.0,70.9,67.0,63.0,59.3,56.0,79,67,56,30.45,30.32,29,22,46,0.01
2013-2-3,75.0,68.9,64.0,59.0,57.6,56.0,78,68,56,30.46,30.37,22,15,39,0.00
2013-2-4,76.0,70.3,67.0,62.0,59.5,57.0,79,69,58,30.41,30.32,27,17,48,0.00
2013-2-5,74.0,69.8,66.0,62.0,60.0,58.0,79,71,64,30.38,30.30,26,16,39,0.00
2013-2-6,76.0,70.6,65.0,67.0,63.8,61.0,89,79,69,30.38,30.30,19,13,31,0.02
2013-2-7,76.0,71.3,68.0,67.0,64.9,61.0,89,80,72,30.42,30.31,26,19,41,0.02
2013-2-8,76.0,71.0,67.0,66.0,63.4,59.0,85,77,68,30.43,30.33,20,14,32,0.00
2013-2-9,76.0,71.1,66.0,66.0,63.0,60.0,83,76,62,30.43,30.34,18,12,30,0.00
2013-2-10,77.0,71.3,66.0,65.0,62.5,58.0,83,74,63,30.49,30.37,25,16,42,0.00
2013-2-11,74.0,70.0,67.0,64.0,62.8,59.0,89,78,59,30.49,30.41,23,14,34,0.01
2013-2-12,74.0,67.6,64.0,64.0,59.3,53.0,91,75,61,30.48,30.38,20,13,37,0.02
2013-2-13,74.0,67.8,64.0,59.0,56.1,53.0,75,66,58,30.43,30.30,20,12,31,0.03
2013-2-14,74.0,68.4,64.0,62.0,58.0,52.0,80,70,60,30.39,30.29,21,14,33,0.03
2013-2-15,76.0,70.5,66.0,65.0,60.1,56.0,79,70,60,30.39,30.28,30,20,47,0.00
2013-2-16,75.0,70.4,67.0,64.0,61.1,58.0,83,73,62,30.42,30.31,31,26,51,0.00
2013-2-17,74.0,70.0,67.0,64.0,60.3,56.0,80,71,61,30.42,30.32,32,26,60,0.00
2013-2-18,76.0,70.0,66.0,63.0,60.0,57.0,88,71,56,30.41,30.32,31,27,51,0.00
2013-2-19,75.0,70.2,67.0,63.0,58.0,53.0,82,66,51,30.43,30.32,28,24,48,0.00
2013-2-20,74.0,70.5,67.0,65.0,61.4,58.0,84,73,60,30.43,30.33,29,19,45,0.00
2013-2-21,75.0,70.3,67.0,66.0,63.4,60.0,86,79,73,30.42,30.34,27,20,47,0.00
2013-2-22,75.0,70.6,68.0,65.0,63.0,61.0,88,77,65,30.41,30.31,26,23,47,0.00
2013-2-23,74.0,69.9,66.0,65.0,62.8,60.0,89,79,69,30.41,30.31,27,23,46,0.00
2013-2-24,74.0,70.2,67.0,63.0,61.2,59.0,83,73,64,30.39,30.30,27,20,44,0.00
2013-2-25,76.0,70.8,66.0,65.0,61.0,57.0,81,72,58,30.42,30.33,26,18,42,0.00
2013-2-26,76.0,70.2,67.0,63.0,60.0,57.0,80,70,57,30.44,30.32,32,23,49,0.00
2013-2-27,75.0,70.4,67.0,61.0,58.8,57.0,76,67,56,30.46,30.37,29,25,46,0.00
2013-2-28,76.0,71.1,67.0,60.0,57.3,50.0,74,62,41,30.48,30.36,29,23,44,0.00